Time;durP1;ratioP1;P1;durP2;ratioP2;P2;SDS_P1;SDS_P2;PMS_P1;PMS_P2;Temp;Humidity;BMP_temperature;BMP_pressure;BME280_temperature;BME280_humidity;BME280_pressure;Samples;Min_cycle;Max_cycle;Signal;HPM_P1;HPM_P2
2024/02/09 00:01:20;;;;;;;25.40;9.60;;;;;;;2.33;89.13;99142.49;111370;1211;97690;-70
2024/02/09 00:03:48;;;;;;;20.60;10.00;;;;;;;2.32;89.34;99145.52;111403;1211;138502;-70
2024/02/09 00:06:16;;;;;;;29.20;10.40;;;;;;;2.33;89.58;99143.73;111436;1212;97744;-70
2024/02/09 00:08:41;;;;;;;20.10;9.50;;;;;;;2.33;89.43;99143.89;111446;1209;138611;-70
2024/02/09 00:11:11;;;;;;;22.20;9.40;;;;;;;2.34;89.64;99141.59;111449;1211;97602;-70
2024/02/09 00:13:42;;;;;;;22.00;10.30;;;;;;;2.34;89.34;99141.05;111486;1211;107067;-70
2024/02/09 00:16:08;;;;;;;19.80;10.10;;;;;;;2.32;89.41;99135.28;111320;1212;138465;-70
2024/02/09 00:18:33;;;;;;;31.10;11.70;;;;;;;2.32;89.51;99133.52;111352;1211;97586;-70
2024/02/09 00:20:58;;;;;;;27.10;10.90;;;;;;;2.32;89.53;99131.95;111398;1211;138087;-70
2024/02/09 00:23:28;;;;;;;26.60;10.90;;;;;;;2.31;89.61;99131.27;111414;1205;97700;-70
2024/02/09 00:25:57;;;;;;;33.30;12.20;;;;;;;2.30;89.35;99124.60;111475;1206;97717;-70
2024/02/09 00:28:23;;;;;;;25.80;10.90;;;;;;;2.32;89.52;99125.80;111334;1212;140003;-70
2024/02/09 00:30:48;;;;;;;30.30;12.10;;;;;;;2.31;89.58;99129.86;111358;1212;97760;-70
2024/02/09 00:33:14;;;;;;;30.00;12.70;;;;;;;2.31;89.59;99134.62;111238;1212;139314;-70
2024/02/09 00:35:39;;;;;;;30.50;13.00;;;;;;;2.32;89.54;99140.77;111395;1223;97655;-70
2024/02/09 00:38:05;;;;;;;31.30;13.30;;;;;;;2.32;89.58;99141.46;111470;1212;97630;-70
2024/02/09 00:40:33;;;;;;;27.70;12.40;;;;;;;2.33;89.75;99139.84;111299;1211;138193;-70
2024/02/09 00:43:01;;;;;;;30.70;12.70;;;;;;;2.34;89.76;99134.67;111514;1210;97606;-70
2024/02/09 00:45:30;;;;;;;24.80;11.70;;;;;;;2.36;89.62;99138.88;111285;1210;140658;-70
2024/02/09 00:48:00;;;;;;;27.00;12.50;;;;;;;2.34;89.80;99137.89;111468;1212;97914;-70
2024/02/09 00:50:30;;;;;;;33.00;13.80;;;;;;;2.32;89.82;99136.71;111246;1206;139103;-70
2024/02/09 00:53:04;;;;;;;29.20;11.60;;;;;;;2.31;89.56;99134.27;111417;1212;99604;-70
2024/02/09 00:55:30;;;;;;;29.70;11.80;;;;;;;2.30;89.92;99135.36;111424;1212;107528;-70
2024/02/09 00:57:58;;;;;;;28.60;12.80;;;;;;;2.30;89.90;99135.19;111432;1212;138365;-70
2024/02/09 01:00:25;;;;;;;27.30;11.50;;;;;;;2.31;89.69;99135.85;111412;1206;97603;-70
2024/02/09 01:02:51;;;;;;;31.20;13.30;;;;;;;2.33;89.83;99138.25;111388;1212;140571;-70
2024/02/09 01:05:18;;;;;;;24.80;11.70;;;;;;;2.35;89.86;99136.59;111489;1206;97636;-70
2024/02/09 01:07:44;;;;;;;29.70;12.20;;;;;;;2.35;89.92;99136.80;111633;1208;98133;-70
2024/02/09 01:10:11;;;;;;;33.50;12.70;;;;;;;2.34;89.83;99133.64;111463;1213;138876;-70
2024/02/09 02:45:30;;;;;;;18.20;8.60;;;;;;;2.19;90.10;99056.61;110844;1220;138271;-68
2024/02/09 03:04:19;;;;;;;17.90;8.10;;;;;;;2.17;90.18;99058.60;110823;1208;139011;-68
2024/02/09 03:06:44;;;;;;;25.10;8.70;;;;;;;2.17;90.13;99047.35;111010;1206;98259;-68
2024/02/09 03:09:10;;;;;;;21.70;9.20;;;;;;;2.14;90.04;99038.80;110925;1212;138963;-68
2024/02/09 03:11:35;;;;;;;19.50;8.90;;;;;;;2.13;90.11;99048.54;110964;1220;97784;-69
2024/02/09 03:14:01;;;;;;;18.70;9.40;;;;;;;2.14;90.06;99057.65;111037;1211;98901;-68
2024/02/09 03:16:26;;;;;;;22.20;9.10;;;;;;;2.17;90.04;99045.39;110838;1206;138586;-68
2024/02/09 03:18:52;;;;;;;22.70;9.50;;;;;;;2.18;90.19;99045.90;110973;1221;97728;-68
2024/02/09 03:21:25;;;;;;;18.60;9.00;;;;;;;2.17;90.16;99049.27;110949;1212;142583;-68
2024/02/09 03:23:53;;;;;;;19.90;8.60;;;;;;;2.17;90.15;99048.37;111014;1208;97820;-68
2024/02/09 03:26:22;;;;;;;21.50;7.80;;;;;;;2.18;90.13;99040.60;110914;1214;97710;-68
2024/02/09 03:28:49;;;;;;;20.00;8.40;;;;;;;2.17;90.19;99033.59;110895;1212;137948;-68
2024/02/09 03:31:15;;;;;;;22.10;7.80;;;;;;;2.18;90.15;99027.92;110984;1211;97617;-68
2024/02/09 03:33:42;;;;;;;18.80;8.30;;;;;;;2.17;90.16;99020.56;110920;1211;138520;-68
2024/02/09 03:36:08;;;;;;;21.40;7.60;;;;;;;2.17;90.22;99022.84;111083;1206;98975;-68
2024/02/09 03:38:35;;;;;;;15.00;7.20;;;;;;;2.17;90.24;99030.98;110798;1212;138740;-68
2024/02/09 03:41:01;;;;;;;16.20;7.40;;;;;;;2.15;90.11;99024.14;111034;1211;97731;-68
2024/02/09 03:43:26;;;;;;;16.30;7.70;;;;;;;2.17;90.10;99023.55;110957;1218;97672;-68
2024/02/09 03:45:54;;;;;;;15.20;7.30;;;;;;;2.17;90.17;99019.67;110934;1212;138064;-68
2024/02/09 03:48:19;;;;;;;19.40;7.70;;;;;;;2.17;90.28;99014.39;111063;1212;111551;-68
2024/02/09 03:50:44;;;;;;;21.20;7.80;;;;;;;2.16;90.20;99013.89;110906;1211;139205;-68
2024/02/09 03:53:12;;;;;;;20.40;7.60;;;;;;;2.16;90.16;99015.66;111050;1212;97596;-68
2024/02/09 03:55:39;;;;;;;17.80;7.50;;;;;;;2.17;90.06;99018.27;111010;1206;98076;-68
2024/02/09 03:58:05;;;;;;;18.90;7.10;;;;;;;2.15;90.09;99017.98;111010;1211;138186;-68
2024/02/09 04:00:31;;;;;;;13.90;6.40;;;;;;;2.15;90.14;99013.04;110963;1206;97613;-68
2024/02/09 04:02:56;;;;;;;16.90;6.90;;;;;;;2.14;90.24;99009.05;110885;1206;138658;-68
2024/02/09 04:05:22;;;;;;;15.10;7.00;;;;;;;2.14;90.23;99014.85;110968;1209;97747;-68
2024/02/09 04:07:49;;;;;;;14.00;6.70;;;;;;;2.15;90.20;99019.56;111066;1212;97773;-68
2024/02/09 04:10:14;;;;;;;15.60;6.00;;;;;;;2.16;90.33;99022.70;110936;1209;138195;-68
2024/02/09 04:12:40;;;;;;;15.10;6.00;;;;;;;2.15;90.24;99019.39;111033;1210;97710;-69
2024/02/09 04:15:06;;;;;;;12.60;6.20;;;;;;;2.17;90.21;99015.11;110833;1212;139577;-69
2024/02/09 04:17:31;;;;;;;16.20;6.50;;;;;;;2.16;90.08;99009.64;111068;1206;97486;-68
2024/02/09 04:19:57;;;;;;;13.90;6.30;;;;;;;2.17;90.14;99010.33;110998;1214;97591;-68
2024/02/09 04:22:22;;;;;;;11.00;4.90;;;;;;;2.15;90.02;99013.22;110913;1212;138538;-68
2024/02/09 04:24:50;;;;;;;14.10;5.60;;;;;;;2.16;90.37;99007.54;111203;1212;97735;-68
2024/02/09 04:27:17;;;;;;;13.50;5.60;;;;;;;2.16;90.12;98999.42;110871;1220;138201;-68
2024/02/09 04:29:43;;;;;;;11.10;4.90;;;;;;;2.17;90.19;98992.88;111002;1212;97577;-69
2024/02/09 04:32:08;;;;;;;10.70;4.80;;;;;;;2.18;90.07;98989.86;111028;1219;97710;-68
2024/02/09 04:34:33;;;;;;;14.00;5.30;;;;;;;2.18;90.22;98988.11;110991;1211;139705;-68
2024/02/09 04:37:01;;;;;;;10.00;4.50;;;;;;;2.17;90.18;98993.07;111067;1206;97757;-68
2024/02/09 04:39:26;;;;;;;11.60;4.60;;;;;;;2.16;90.22;98989.06;110788;1206;138515;-68
2024/02/09 04:41:52;;;;;;;11.80;5.20;;;;;;;2.15;90.27;98976.05;111046;1212;97574;-68
2024/02/09 04:44:20;;;;;;;10.70;4.90;;;;;;;2.16;90.25;98968.24;110818;1208;111326;-68
2024/02/09 04:46:46;;;;;;;15.90;6.10;;;;;;;2.17;90.25;98963.45;111028;1210;138169;-68
2024/02/09 04:49:11;;;;;;;9.90;4.80;;;;;;;2.17;90.11;98963.10;110983;1206;97698;-68
2024/02/09 04:51:44;;;;;;;12.30;5.60;;;;;;;2.17;90.15;98961.36;110853;1217;138845;-68
2024/02/09 04:54:10;;;;;;;15.20;5.90;;;;;;;2.17;90.14;98956.08;111034;1208;111864;-68
2024/02/09 04:56:36;;;;;;;11.80;5.40;;;;;;;2.17;90.12;98946.20;110758;1212;138826;-68
2024/02/09 04:59:09;;;;;;;13.30;5.30;;;;;;;2.17;90.24;98949.36;111043;1215;97672;-68
2024/02/09 05:01:39;;;;;;;12.50;5.70;;;;;;;2.17;90.17;98949.90;111124;1210;98010;-68
2024/02/09 05:04:08;;;;;;;16.20;6.90;;;;;;;2.19;90.12;98941.02;110848;1206;138921;-67
2024/02/09 05:06:34;;;;;;;12.60;5.50;;;;;;;2.18;90.18;98943.68;110981;1210;103853;-68
2024/02/09 05:09:00;;;;;;;10.20;5.00;;;;;;;2.19;90.26;98945.76;110870;1206;138789;-68
2024/02/09 05:11:30;;;;;;;10.10;5.50;;;;;;;2.19;90.10;98949.45;111134;1212;97614;-68
2024/02/09 05:13:57;;;;;;;11.40;5.00;;;;;;;2.19;90.09;98949.84;111034;1212;111334;-68
2024/02/09 05:16:23;;;;;;;14.10;5.20;;;;;;;2.18;90.21;98954.11;110870;1212;138517;-68
2024/02/09 05:18:48;;;;;;;8.40;4.90;;;;;;;2.17;90.19;98950.95;111013;1212;97653;-68
2024/02/09 05:21:14;;;;;;;12.60;5.50;;;;;;;2.17;90.16;98951.14;110927;1206;138080;-68
2024/02/09 05:23:40;;;;;;;10.80;5.10;;;;;;;2.16;89.90;98951.70;111034;1207;97619;-68
2024/02/09 05:26:09;;;;;;;13.20;5.90;;;;;;;2.16;90.06;98948.86;111075;1206;97684;-68
2024/02/09 05:28:39;;;;;;;10.30;4.70;;;;;;;2.17;90.03;98945.84;110914;1211;138656;-68
2024/02/09 05:31:15;;;;;;;8.10;4.40;;;;;;;2.17;90.25;98943.20;111002;1212;97679;-68
2024/02/09 05:33:41;;;;;;;12.50;5.70;;;;;;;2.18;90.09;98943.17;110854;1212;140087;-68
2024/02/09 05:36:07;;;;;;;9.80;4.70;;;;;;;2.18;90.17;98934.72;110865;1209;97695;-68
2024/02/09 05:38:32;;;;;;;10.80;5.60;;;;;;;2.18;90.12;98929.78;110569;1212;138110;-68
2024/02/09 05:41:02;;;;;;;12.10;5.10;;;;;;;2.17;90.18;98923.11;110694;1206;98916;-68
2024/02/09 05:43:28;;;;;;;9.20;4.80;;;;;;;2.17;90.03;98914.29;110658;1212;112537;-68
2024/02/09 05:45:53;;;;;;;10.10;4.80;;;;;;;2.18;90.01;98908.95;110723;1207;138504;-68
2024/02/09 05:48:18;;;;;;;14.20;4.90;;;;;;;2.19;90.20;98907.00;110654;1206;98971;-68
2024/02/09 05:50:43;;;;;;;10.90;4.50;;;;;;;2.21;90.08;98906.56;110563;1207;138415;-68
2024/02/09 05:53:09;;;;;;;11.90;5.70;;;;;;;2.20;90.07;98905.36;111019;1212;97625;-68
2024/02/09 05:55:38;;;;;;;11.10;6.40;;;;;;;2.20;90.05;98897.60;110898;1206;106956;-68
2024/02/09 05:58:05;;;;;;;9.50;4.70;;;;;;;2.21;90.14;98895.11;110913;1212;138866;-68
2024/02/09 06:00:30;;;;;;;12.50;5.70;;;;;;;2.21;90.01;98887.20;110912;1208;97624;-68
2024/02/09 06:02:56;;;;;;;9.30;5.10;;;;;;;2.21;90.03;98886.30;110905;1206;138339;-68
2024/02/09 06:05:22;;;;;;;10.90;5.50;;;;;;;2.24;90.26;98890.80;111015;1212;97650;-68
2024/02/09 06:07:48;;;;;;;11.00;5.40;;;;;;;2.24;90.04;98893.42;111050;1211;97697;-68
2024/02/09 06:10:14;;;;;;;13.30;5.90;;;;;;;2.23;90.07;98893.10;110853;1208;139631;-66
2024/02/09 06:12:40;;;;;;;12.30;6.00;;;;;;;2.24;90.20;98892.19;111091;1211;97628;-68
2024/02/09 06:15:08;;;;;;;17.60;5.90;;;;;;;2.24;90.08;98899.05;110933;1212;138649;-68
2024/02/09 06:17:33;;;;;;;11.10;5.50;;;;;;;2.24;90.15;98903.80;110897;1206;97658;-68
2024/02/09 06:19:58;;;;;;;11.50;6.10;;;;;;;2.24;89.94;98906.98;110992;1210;97665;-69
2024/02/09 06:22:25;;;;;;;12.90;5.80;;;;;;;2.23;90.14;98899.10;110983;1212;138256;-68
2024/02/09 06:24:54;;;;;;;13.80;6.80;;;;;;;2.23;90.04;98895.40;111081;1206;108067;-69
2024/02/09 06:27:19;;;;;;;18.50;6.70;;;;;;;2.25;90.28;98891.10;111036;1222;138269;-69
2024/02/09 06:29:45;;;;;;;22.10;6.70;;;;;;;2.26;90.19;98888.04;111003;1206;97661;-69
2024/02/09 06:32:11;;;;;;;15.90;7.20;;;;;;;2.26;89.95;98889.09;111103;1206;97671;-69
2024/02/09 06:34:36;;;;;;;14.90;6.70;;;;;;;2.26;90.17;98887.18;110793;1206;138535;-69
2024/02/09 06:37:01;;;;;;;18.10;8.30;;;;;;;2.26;90.04;98885.21;110917;1212;97806;-69
2024/02/09 06:39:26;;;;;;;15.10;8.30;;;;;;;2.28;90.17;98887.29;110949;1211;138478;-69
2024/02/09 06:41:53;;;;;;;22.60;9.70;;;;;;;2.29;90.05;98890.60;111049;1209;97607;-69
2024/02/09 06:44:18;;;;;;;17.80;8.80;;;;;;;2.30;90.30;98886.68;110670;1206;97658;-69
2024/02/09 06:46:44;;;;;;;18.20;8.60;;;;;;;2.30;90.01;98882.80;110592;1211;138314;-69
2024/02/09 06:49:09;;;;;;;18.10;8.30;;;;;;;2.29;89.96;98881.95;110954;1206;99148;-69
2024/02/09 06:51:35;;;;;;;18.50;9.40;;;;;;;2.31;90.07;98888.58;111006;1206;138761;-69
2024/02/09 06:54:00;;;;;;;20.80;9.80;;;;;;;2.33;90.07;98896.09;110961;1211;97668;-69
2024/02/09 06:56:25;;;;;;;23.80;9.20;;;;;;;2.34;89.94;98896.41;111027;1206;97719;-69
2024/02/09 06:58:52;;;;;;;25.50;9.90;;;;;;;2.34;90.13;98895.67;110934;1206;137843;-69
2024/02/09 07:01:18;;;;;;;22.10;9.60;;;;;;;2.34;90.12;98895.90;110975;1206;97694;-69
2024/02/09 07:03:44;;;;;;;20.50;10.40;;;;;;;2.33;90.11;98893.27;110894;1206;138256;-69
2024/02/09 07:06:10;;;;;;;20.40;10.70;;;;;;;2.32;90.04;98888.36;111060;1210;97809;-68
2024/02/09 07:08:51;;;;;;;25.80;10.70;;;;;;;2.33;90.14;98879.52;110865;1209;138437;-68
2024/02/09 07:11:16;;;;;;;20.50;10.00;;;;;;;2.32;90.16;98872.85;110907;1209;107866;-68
2024/02/09 07:13:42;;;;;;;24.70;11.20;;;;;;;2.30;89.97;98867.63;111009;1209;97763;-68
2024/02/09 07:16:08;;;;;;;31.50;12.00;;;;;;;2.28;90.02;98869.64;111094;1210;138459;-68
2024/02/09 07:18:38;;;;;;;23.70;11.10;;;;;;;2.28;90.17;98867.70;110988;1206;101150;-68
2024/02/09 07:21:06;;;;;;;28.30;11.40;;;;;;;2.30;90.14;98860.59;110880;1209;141780;-68
2024/02/09 07:23:32;;;;;;;26.10;11.20;;;;;;;2.31;90.19;98860.20;110847;1210;99402;-67
2024/02/09 07:25:57;;;;;;;26.40;11.80;;;;;;;2.33;90.10;98865.26;110877;1209;97704;-68
2024/02/09 07:28:23;;;;;;;28.80;11.50;;;;;;;2.33;90.09;98860.67;110780;1212;139202;-68
2024/02/09 07:30:48;;;;;;;25.00;12.10;;;;;;;2.33;90.05;98861.73;111009;1206;99203;-68
2024/02/09 07:33:14;;;;;;;33.00;12.80;;;;;;;2.31;90.17;98859.50;110859;1210;138522;-68
2024/02/09 07:35:40;;;;;;;24.40;11.80;;;;;;;2.32;90.33;98855.06;111236;1211;97573;-68
2024/02/09 07:38:07;;;;;;;30.10;13.10;;;;;;;2.34;90.14;98852.16;111028;1211;100044;-68
2024/02/09 07:40:32;;;;;;;22.90;10.90;;;;;;;2.34;90.16;98849.89;110767;1210;138867;-68
2024/02/09 07:42:57;;;;;;;27.80;12.50;;;;;;;2.32;90.11;98851.91;110963;1209;98901;-68
2024/02/09 07:45:22;;;;;;;27.00;13.00;;;;;;;2.30;90.25;98847.39;110737;1211;138543;-68
2024/02/09 07:47:49;;;;;;;31.40;13.00;;;;;;;2.27;90.12;98847.30;110463;1211;98021;-67
2024/02/09 07:50:14;;;;;;;31.00;14.20;;;;;;;2.23;89.92;98841.29;110631;1206;101390;-67
2024/02/09 07:52:40;;;;;;;32.60;13.50;;;;;;;2.21;90.16;98842.24;110779;1207;138542;-68
2024/02/09 07:55:06;;;;;;;29.50;13.10;;;;;;;2.22;90.21;98844.49;110821;1209;97585;-68
2024/02/09 07:57:33;;;;;;;31.70;15.00;;;;;;;2.21;90.29;98839.80;110733;1210;138500;-66
2024/02/09 07:59:59;;;;;;;30.20;12.70;;;;;;;2.20;90.13;98832.42;110856;1206;97610;-68
2024/02/09 08:02:28;;;;;;;34.40;12.60;;;;;;;2.18;89.99;98834.44;110876;1210;97588;-68
2024/02/09 08:04:54;;;;;;;25.40;12.20;;;;;;;2.17;90.22;98833.05;111499;1207;138495;-71
2024/02/09 08:07:20;;;;;;;26.90;12.10;;;;;;;2.17;90.18;98834.48;111521;1206;96564;-69
2024/02/09 08:09:46;;;;;;;25.10;12.40;;;;;;;2.16;90.14;98833.97;111508;1215;138493;-66
2024/02/09 08:12:15;;;;;;;27.30;13.00;;;;;;;2.15;90.19;98829.80;111511;1208;97642;-68
2024/02/09 08:14:40;;;;;;;39.40;16.40;;;;;;;2.17;90.33;98824.25;111218;1207;139081;-66
2024/02/09 08:17:05;;;;;;;28.90;13.80;;;;;;;2.18;90.41;98820.16;110725;1211;98278;-67
2024/02/09 08:19:34;;;;;;;32.80;13.40;;;;;;;2.19;90.39;98820.48;110935;1210;97775;-67
2024/02/09 08:22:00;;;;;;;34.80;14.30;;;;;;;2.17;90.25;98813.52;111464;1206;138157;-67
2024/02/09 08:24:25;;;;;;;32.00;13.40;;;;;;;2.16;90.40;98809.67;111494;1208;97589;-67
2024/02/09 08:26:50;;;;;;;30.10;13.30;;;;;;;2.16;90.33;98811.42;110826;1210;139125;-67
2024/02/09 08:29:15;;;;;;;42.70;14.00;;;;;;;2.15;90.47;98811.48;110869;1210;97678;-67
2024/02/09 08:31:41;;;;;;;30.00;12.20;;;;;;;2.16;90.44;98809.14;110935;1211;97695;-66
2024/02/09 08:34:06;;;;;;;30.10;13.60;;;;;;;2.17;90.50;98809.82;110765;1205;138325;-67
2024/02/09 08:36:31;;;;;;;25.70;12.20;;;;;;;2.15;90.47;98810.60;110607;1212;99654;-67
2024/02/09 08:38:57;;;;;;;36.60;14.70;;;;;;;2.14;90.44;98810.11;110779;1212;138586;-67
2024/02/09 08:41:22;;;;;;;29.00;15.70;;;;;;;2.14;90.52;98805.20;110783;1206;98205;-67
2024/02/09 08:43:49;;;;;;;29.30;13.90;;;;;;;2.16;90.71;98803.87;110709;1219;97629;-66
2024/02/09 08:46:14;;;;;;;32.80;13.50;;;;;;;2.19;90.54;98802.69;111321;1220;138615;-67
2024/02/09 08:48:39;;;;;;;26.20;13.40;;;;;;;2.20;90.35;98797.36;111660;1206;97643;-67
2024/02/09 08:51:06;;;;;;;27.30;13.90;;;;;;;2.19;90.68;98790.20;111555;1207;138651;-67
2024/02/09 08:53:33;;;;;;;33.80;12.60;;;;;;;2.18;90.46;98788.98;111486;1210;107912;-66
2024/02/09 08:55:59;;;;;;;29.70;13.70;;;;;;;2.16;90.54;98793.27;111277;1211;97623;-66
2024/02/09 08:58:24;;;;;;;23.50;12.80;;;;;;;2.14;90.39;98787.72;110782;1206;139398;-67
2024/02/09 09:00:49;;;;;;;29.10;14.60;;;;;;;2.12;90.31;98784.83;110913;1210;97695;-66
2024/02/09 09:03:14;;;;;;;29.00;13.70;;;;;;;2.12;90.55;98781.48;110655;1216;141408;-66
2024/02/09 09:05:41;;;;;;;21.90;12.10;;;;;;;2.12;90.66;98774.63;110920;1205;99313;-66
2024/02/09 09:08:07;;;;;;;29.30;13.70;;;;;;;2.11;90.72;98766.02;110926;1209;99140;-66
2024/02/09 09:10:34;;;;;;;25.70;12.20;;;;;;;2.13;90.64;98761.36;110741;1208;138309;-65
2024/02/09 09:12:59;;;;;;;21.70;11.60;;;;;;;2.16;90.86;98752.77;110866;1209;97639;-68
2024/02/09 09:15:25;;;;;;;27.10;12.60;;;;;;;2.19;90.83;98747.02;110396;1211;138601;-68
2024/02/09 09:17:51;;;;;;;22.90;11.80;;;;;;;2.24;90.84;98752.80;110859;1206;97635;-68
2024/02/09 09:20:16;;;;;;;27.80;11.90;;;;;;;2.25;90.74;98749.42;110902;1212;97578;-68
2024/02/09 09:22:41;;;;;;;22.80;12.10;;;;;;;2.24;90.86;98744.15;110813;1209;138431;-68
2024/02/09 09:25:08;;;;;;;24.10;12.40;;;;;;;2.24;90.79;98745.02;111005;1206;97588;-68
2024/02/09 09:27:34;;;;;;;21.30;11.80;;;;;;;2.26;90.83;98744.42;110629;1210;139169;-68
2024/02/09 09:30:04;;;;;;;22.10;11.70;;;;;;;2.26;90.86;98740.73;111345;1206;97659;-68
2024/02/09 09:32:32;;;;;;;24.90;13.70;;;;;;;2.26;90.88;98742.86;111642;1206;97669;-68
2024/02/09 09:34:58;;;;;;;21.00;11.20;;;;;;;2.27;90.89;98745.27;111408;1209;138660;-68
2024/02/09 09:37:23;;;;;;;22.60;12.80;;;;;;;2.28;91.05;98743.82;111477;1206;97658;-68
2024/02/09 09:39:48;;;;;;;23.90;13.00;;;;;;;2.29;90.76;98740.95;111423;1206;138824;-68
2024/02/09 09:42:13;;;;;;;26.60;13.00;;;;;;;2.28;90.85;98735.53;111501;1206;97784;-68
2024/02/09 09:44:38;;;;;;;20.50;10.70;;;;;;;2.28;90.91;98734.83;111513;1210;138708;-68
2024/02/09 09:47:09;;;;;;;20.40;11.10;;;;;;;2.31;90.77;98729.98;111548;1206;98045;-68
2024/02/09 09:49:39;;;;;;;21.50;12.20;;;;;;;2.31;90.95;98725.75;111464;1206;113093;-68
2024/02/09 09:52:12;;;;;;;23.80;12.60;;;;;;;2.31;91.03;98721.89;111444;1206;140207;-68
2024/02/09 09:54:38;;;;;;;21.20;11.90;;;;;;;2.33;91.01;98714.20;111566;1210;97590;-68
2024/02/09 09:57:04;;;;;;;19.00;11.90;;;;;;;2.35;90.98;98704.41;111546;1210;138434;-68
2024/02/09 09:59:31;;;;;;;24.00;11.50;;;;;;;2.37;91.12;98710.84;111582;1209;97579;-68
2024/02/09 10:01:57;;;;;;;26.50;12.20;;;;;;;2.39;91.13;98706.19;111571;1209;98023;-68
2024/02/09 10:04:23;;;;;;;22.10;12.00;;;;;;;2.39;91.14;98698.10;110758;1210;138305;-66
2024/02/09 10:06:49;;;;;;;18.20;10.30;;;;;;;2.38;91.04;98686.16;110905;1218;106229;-68
2024/02/09 10:09:16;;;;;;;20.90;11.20;;;;;;;2.38;91.08;98688.25;111093;1206;140157;-66
2024/02/09 10:11:42;;;;;;;24.30;11.10;;;;;;;2.41;91.04;98682.48;111544;1205;97696;-68
2024/02/09 10:14:14;;;;;;;25.20;11.10;;;;;;;2.44;91.08;98684.65;111196;1211;98081;-68
2024/02/09 10:16:40;;;;;;;21.00;10.30;;;;;;;2.44;91.20;98675.30;111459;1209;138542;-69
2024/02/09 10:19:06;;;;;;;19.50;10.50;;;;;;;2.44;91.35;98676.55;111520;1205;97706;-70
2024/02/09 10:21:31;;;;;;;18.50;9.90;;;;;;;2.43;91.13;98677.66;111470;1208;138202;-69
2024/02/09 10:23:56;;;;;;;19.70;9.50;;;;;;;2.43;91.20;98675.91;111561;1209;97652;-68
2024/02/09 10:26:24;;;;;;;22.30;10.30;;;;;;;2.46;91.22;98679.31;110838;1205;97648;-69
2024/02/09 10:28:52;;;;;;;20.40;9.90;;;;;;;2.46;91.23;98676.10;111461;1208;138900;-67
2024/02/09 10:31:18;;;;;;;19.20;10.00;;;;;;;2.48;91.40;98670.20;111525;1210;97679;-69
2024/02/09 10:33:44;;;;;;;29.00;11.00;;;;;;;2.48;91.15;98665.29;111424;1210;139242;-69
2024/02/09 10:36:11;;;;;;;17.70;9.20;;;;;;;2.47;91.30;98658.27;111541;1212;97671;-69
2024/02/09 10:38:38;;;;;;;18.00;9.70;;;;;;;2.48;91.31;98648.54;111364;1210;138413;-69
2024/02/09 10:41:04;;;;;;;18.00;9.70;;;;;;;2.51;91.49;98647.19;111620;1206;97601;-69
2024/02/09 10:43:34;;;;;;;18.80;10.10;;;;;;;2.55;91.49;98644.55;111524;1210;97622;-69
2024/02/09 10:46:00;;;;;;;19.80;9.40;;;;;;;2.56;91.44;98638.11;111429;1206;138304;-69
2024/02/09 10:48:35;;;;;;;20.20;10.00;;;;;;;2.57;91.33;98630.67;111521;1208;97641;-68
2024/02/09 10:51:02;;;;;;;19.40;9.40;;;;;;;2.60;91.49;98618.90;111437;1210;138715;-69
2024/02/09 10:53:32;;;;;;;19.00;8.90;;;;;;;2.61;91.40;98613.35;111633;1210;107859;-68
2024/02/09 10:56:03;;;;;;;21.30;10.60;;;;;;;2.64;91.45;98613.59;111519;1206;97686;-69
2024/02/09 10:58:34;;;;;;;20.10;9.90;;;;;;;2.67;91.61;98609.23;111471;1206;141544;-68
2024/02/09 11:01:04;;;;;;;17.60;10.20;;;;;;;2.71;91.67;98615.62;111453;1206;112951;-68
2024/02/09 11:03:31;;;;;;;16.00;9.90;;;;;;;2.71;91.50;98611.88;111376;1206;139251;-68
2024/02/09 11:06:00;;;;;;;16.50;9.40;;;;;;;2.69;91.58;98609.85;111550;1210;107668;-68
2024/02/09 11:08:26;;;;;;;18.30;9.60;;;;;;;2.69;91.51;98610.72;111492;1210;97612;-68
2024/02/09 11:11:00;;;;;;;18.30;10.80;;;;;;;2.68;91.50;98615.04;111448;1206;141379;-68
2024/02/09 11:13:25;;;;;;;22.70;11.50;;;;;;;2.65;91.46;98606.66;111469;1206;110530;-68
2024/02/09 11:15:58;;;;;;;20.10;10.10;;;;;;;2.64;91.52;98601.61;111445;1208;139130;-68
2024/02/09 11:18:31;;;;;;;22.20;10.30;;;;;;;2.67;91.64;98600.94;111471;1212;107456;-68
2024/02/09 11:21:14;;;;;;;18.60;10.10;;;;;;;2.67;91.69;98601.64;111411;1206;139649;-68
2024/02/09 11:23:43;;;;;;;18.20;9.40;;;;;;;2.66;91.57;98592.55;111519;1210;97697;-68
2024/02/09 11:26:13;;;;;;;15.90;9.20;;;;;;;2.68;91.84;98594.91;111519;1206;113971;-68
2024/02/09 11:28:40;;;;;;;17.70;10.10;;;;;;;2.68;91.72;98586.98;111337;1207;138754;-68
2024/02/09 11:31:12;;;;;;;17.60;10.60;;;;;;;2.69;91.70;98589.60;111412;1206;97581;-68
2024/02/09 11:33:41;;;;;;;17.80;9.90;;;;;;;2.69;91.67;98592.25;111411;1207;138329;-68
2024/02/09 11:36:11;;;;;;;17.60;9.40;;;;;;;2.67;91.70;98594.93;111521;1210;97774;-68
2024/02/09 11:38:36;;;;;;;16.30;8.40;;;;;;;2.69;91.58;98591.19;111347;1210;138831;-69
2024/02/09 11:41:08;;;;;;;14.50;7.50;;;;;;;2.69;91.66;98592.23;111467;1210;100025;-67
2024/02/09 11:43:34;;;;;;;22.90;10.90;;;;;;;2.69;91.51;98595.58;110893;1209;109533;-67
2024/02/09 11:46:01;;;;;;;31.60;12.70;;;;;;;2.69;91.74;98602.10;111211;1205;138382;-68
2024/02/09 11:48:27;;;;;;;17.80;9.90;;;;;;;2.69;91.89;98599.61;111443;1206;96352;-69
2024/02/09 11:50:57;;;;;;;18.10;8.20;;;;;;;2.69;91.79;98597.52;111435;1210;138147;-67
2024/02/09 11:53:22;;;;;;;17.60;9.20;;;;;;;2.70;91.84;98593.59;111446;1206;107492;-67
2024/02/09 11:55:48;;;;;;;15.20;8.70;;;;;;;2.70;91.91;98595.19;111469;1206;97738;-67
2024/02/09 11:58:13;;;;;;;16.50;8.90;;;;;;;2.70;91.72;98597.14;111330;1212;139699;-67
2024/02/09 12:00:41;;;;;;;15.00;8.50;;;;;;;2.69;91.90;98598.56;111439;1212;97348;-68
2024/02/09 12:03:06;;;;;;;13.20;7.80;;;;;;;2.71;91.94;98597.77;111320;1210;138617;-67
2024/02/09 12:05:32;;;;;;;16.40;8.70;;;;;;;2.72;92.12;98582.90;111372;1211;97683;-67
2024/02/09 12:07:58;;;;;;;19.70;9.60;;;;;;;2.75;92.06;98582.11;111522;1206;97600;-67
2024/02/09 12:10:23;;;;;;;15.80;9.20;;;;;;;2.76;92.01;98576.91;110749;1212;139108;-67
2024/02/09 12:12:51;;;;;;;17.30;8.60;;;;;;;2.77;92.03;98570.34;111264;1211;96575;-68
2024/02/09 12:15:23;;;;;;;13.30;9.10;;;;;;;2.80;91.92;98567.19;111318;1209;140028;-67
2024/02/09 12:17:48;;;;;;;15.60;8.50;;;;;;;2.81;92.14;98561.17;111479;1210;111265;-68
2024/02/09 12:20:14;;;;;;;17.30;9.30;;;;;;;2.81;92.21;98560.45;111125;1206;98110;-68
2024/02/09 12:22:41;;;;;;;18.80;9.00;;;;;;;2.82;92.27;98562.17;111315;1206;138973;-67
2024/02/09 12:25:09;;;;;;;18.00;9.60;;;;;;;2.83;92.27;98558.77;111487;1206;97763;-67
2024/02/09 12:27:35;;;;;;;17.70;8.70;;;;;;;2.82;92.22;98555.46;111325;1206;139596;-66
2024/02/09 12:30:05;;;;;;;14.50;8.80;;;;;;;2.82;92.08;98553.88;111400;1212;98039;-65
2024/02/09 12:32:32;;;;;;;15.70;7.70;;;;;;;2.83;92.12;98547.85;111464;1210;107407;-66
2024/02/09 12:34:57;;;;;;;14.80;7.90;;;;;;;2.84;92.14;98543.41;111263;1212;138784;-66
2024/02/09 12:37:23;;;;;;;14.20;7.80;;;;;;;2.84;92.35;98541.25;111543;1209;98269;-64
2024/02/09 12:39:53;;;;;;;14.70;7.90;;;;;;;2.86;92.27;98539.79;111331;1206;138002;-64
2024/02/09 12:42:21;;;;;;;13.10;7.80;;;;;;;2.86;92.37;98534.48;111415;1206;107193;-65
2024/02/09 12:44:49;;;;;;;11.90;7.10;;;;;;;2.87;92.33;98535.31;110920;1211;138580;-66
2024/02/09 12:47:16;;;;;;;13.30;7.70;;;;;;;2.90;92.40;98540.09;110793;1210;98111;-66
2024/02/09 12:49:43;;;;;;;13.10;7.70;;;;;;;2.92;92.51;98543.71;111239;1208;97751;-65
2024/02/09 12:52:14;;;;;;;15.40;8.40;;;;;;;2.91;92.28;98539.00;111353;1210;138267;-67
2024/02/09 12:54:42;;;;;;;15.10;8.60;;;;;;;2.92;92.40;98534.71;111404;1210;107446;-67
2024/02/09 12:57:08;;;;;;;16.70;9.60;;;;;;;2.94;92.47;98527.42;111329;1210;138463;-67
2024/02/09 12:59:34;;;;;;;18.90;11.10;;;;;;;2.96;92.63;98526.27;111475;1208;97304;-67
2024/02/09 13:02:07;;;;;;;18.20;10.70;;;;;;;2.99;92.62;98523.86;111422;1209;97715;-67
2024/02/09 13:04:42;;;;;;;15.30;8.90;;;;;;;3.01;92.60;98526.02;110812;1212;138339;-67